sensor_id;sensor_type;location;lat;lon;timestamp;P1;durP1;ratioP1;P2;durP2;ratioP2
47922;SDS011;33688;44.354;9.228;2023-12-14T04:40:53;1.02;;;0.70;;
47922;SDS011;33688;44.354;9.228;2023-12-14T04:43:19;0.80;;;0.73;;
47922;SDS011;33688;44.354;9.228;2023-12-14T04:45:45;1.30;;;0.88;;
47922;SDS011;33688;44.354;9.228;2023-12-14T04:48:12;0.85;;;0.73;;
47922;SDS011;33688;44.354;9.228;2023-12-14T04:50:37;1.67;;;1.00;;
47922;SDS011;33688;44.354;9.228;2023-12-14T04:53:03;0.75;;;0.70;;
47922;SDS011;33688;44.354;9.228;2023-12-14T04:55:29;1.45;;;0.98;;
47922;SDS011;33688;44.354;9.228;2023-12-14T04:57:55;1.13;;;0.70;;
47922;SDS011;33688;44.354;9.228;2023-12-14T05:00:21;0.77;;;0.75;;
47922;SDS011;33688;44.354;9.228;2023-12-14T05:02:50;2.85;;;0.82;;
47922;SDS011;33688;44.354;9.228;2023-12-14T05:05:15;1.30;;;0.90;;
47922;SDS011;33688;44.354;9.228;2023-12-14T05:07:41;1.17;;;0.75;;
47922;SDS011;33688;44.354;9.228;2023-12-14T05:10:07;1.67;;;0.95;;
47922;SDS011;33688;44.354;9.228;2023-12-14T05:12:34;2.00;;;1.00;;
47922;SDS011;33688;44.354;9.228;2023-12-14T05:15:01;1.40;;;0.70;;
47922;SDS011;33688;44.354;9.228;2023-12-14T05:17:28;0.82;;;0.68;;
47922;SDS011;33688;44.354;9.228;2023-12-14T05:19:54;1.98;;;0.90;;
47922;SDS011;33688;44.354;9.228;2023-12-14T05:22:21;1.15;;;0.70;;
47922;SDS011;33688;44.354;9.228;2023-12-14T05:24:48;1.27;;;0.80;;
47922;SDS011;33688;44.354;9.228;2023-12-14T05:27:15;1.75;;;0.98;;
47922;SDS011;33688;44.354;9.228;2023-12-14T05:29:41;0.80;;;0.70;;
47922;SDS011;33688;44.354;9.228;2023-12-14T05:32:07;1.20;;;0.82;;
47922;SDS011;33688;44.354;9.228;2023-12-14T05:34:33;1.02;;;0.70;;
47922;SDS011;33688;44.354;9.228;2023-12-14T05:36:59;1.55;;;0.98;;
47922;SDS011;33688;44.354;9.228;2023-12-14T05:39:25;1.02;;;0.80;;
47922;SDS011;33688;44.354;9.228;2023-12-14T05:41:51;1.17;;;0.90;;
47922;SDS011;33688;44.354;9.228;2023-12-14T05:44:16;1.65;;;0.75;;
47922;SDS011;33688;44.354;9.228;2023-12-14T05:46:42;0.80;;;0.70;;
47922;SDS011;33688;44.354;9.228;2023-12-14T05:49:09;1.50;;;0.70;;
47922;SDS011;33688;44.354;9.228;2023-12-14T05:51:35;1.40;;;0.77;;
47922;SDS011;33688;44.354;9.228;2023-12-14T05:54:03;1.38;;;0.93;;
47922;SDS011;33688;44.354;9.228;2023-12-14T05:56:28;1.48;;;0.77;;
47922;SDS011;33688;44.354;9.228;2023-12-14T05:58:54;1.27;;;0.73;;
47922;SDS011;33688;44.354;9.228;2023-12-14T06:01:20;1.23;;;0.60;;
47922;SDS011;33688;44.354;9.228;2023-12-14T06:03:48;1.98;;;0.85;;
47922;SDS011;33688;44.354;9.228;2023-12-14T06:06:14;1.15;;;0.70;;
47922;SDS011;33688;44.354;9.228;2023-12-14T06:08:40;1.45;;;0.68;;
47922;SDS011;33688;44.354;9.228;2023-12-14T06:11:06;0.95;;;0.77;;
47922;SDS011;33688;44.354;9.228;2023-12-14T06:13:33;0.60;;;0.57;;
47922;SDS011;33688;44.354;9.228;2023-12-14T06:15:59;1.20;;;0.63;;
47922;SDS011;33688;44.354;9.228;2023-12-14T06:18:25;0.93;;;0.60;;
47922;SDS011;33688;44.354;9.228;2023-12-14T06:20:51;0.90;;;0.60;;
47922;SDS011;33688;44.354;9.228;2023-12-14T06:23:17;1.15;;;0.90;;
47922;SDS011;33688;44.354;9.228;2023-12-14T06:25:45;0.85;;;0.60;;
47922;SDS011;33688;44.354;9.228;2023-12-14T06:28:11;1.00;;;0.90;;
47922;SDS011;33688;44.354;9.228;2023-12-14T06:30:37;1.08;;;0.70;;
47922;SDS011;33688;44.354;9.228;2023-12-14T06:33:03;1.00;;;0.73;;
47922;SDS011;33688;44.354;9.228;2023-12-14T06:35:28;0.88;;;0.70;;
47922;SDS011;33688;44.354;9.228;2023-12-14T06:37:54;1.08;;;0.80;;
47922;SDS011;33688;44.354;9.228;2023-12-14T06:40:19;1.63;;;0.90;;
47922;SDS011;33688;44.354;9.228;2023-12-14T06:42:45;0.85;;;0.65;;
47922;SDS011;33688;44.354;9.228;2023-12-14T06:45:11;1.25;;;0.85;;
47922;SDS011;33688;44.354;9.228;2023-12-14T06:47:37;0.93;;;0.70;;
47922;SDS011;33688;44.354;9.228;2023-12-14T06:50:03;1.27;;;0.95;;
47922;SDS011;33688;44.354;9.228;2023-12-14T06:52:29;2.58;;;1.15;;
47922;SDS011;33688;44.354;9.228;2023-12-14T06:54:55;0.77;;;0.75;;
47922;SDS011;33688;44.354;9.228;2023-12-14T06:57:22;1.02;;;0.60;;
47922;SDS011;33688;44.354;9.228;2023-12-14T06:59:48;0.95;;;0.70;;
47922;SDS011;33688;44.354;9.228;2023-12-14T07:02:14;1.42;;;0.95;;
47922;SDS011;33688;44.354;9.228;2023-12-14T07:04:40;0.95;;;0.68;;
47922;SDS011;33688;44.354;9.228;2023-12-14T07:07:06;1.05;;;0.50;;
47922;SDS011;33688;44.354;9.228;2023-12-14T07:09:34;1.40;;;0.80;;
47922;SDS011;33688;44.354;9.228;2023-12-14T07:12:00;0.75;;;0.70;;
47922;SDS011;33688;44.354;9.228;2023-12-14T07:14:28;0.82;;;0.60;;
47922;SDS011;33688;44.354;9.228;2023-12-14T07:16:56;0.80;;;0.70;;
47922;SDS011;33688;44.354;9.228;2023-12-14T07:19:21;1.10;;;0.65;;
47922;SDS011;33688;44.354;9.228;2023-12-14T07:21:47;0.88;;;0.63;;
47922;SDS011;33688;44.354;9.228;2023-12-14T07:24:14;0.95;;;0.70;;
47922;SDS011;33688;44.354;9.228;2023-12-14T07:26:40;0.75;;;0.60;;
47922;SDS011;33688;44.354;9.228;2023-12-14T07:29:05;1.35;;;0.50;;
47922;SDS011;33688;44.354;9.228;2023-12-14T07:31:31;1.35;;;1.00;;
47922;SDS011;33688;44.354;9.228;2023-12-14T07:33:59;0.80;;;0.55;;
47922;SDS011;33688;44.354;9.228;2023-12-14T07:36:24;0.85;;;0.70;;
47922;SDS011;33688;44.354;9.228;2023-12-14T07:38:50;1.20;;;0.68;;
47922;SDS011;33688;44.354;9.228;2023-12-14T07:41:16;1.10;;;0.82;;
47922;SDS011;33688;44.354;9.228;2023-12-14T07:43:42;1.02;;;0.80;;
47922;SDS011;33688;44.354;9.228;2023-12-14T07:46:08;1.55;;;0.88;;
47922;SDS011;33688;44.354;9.228;2023-12-14T07:48:35;0.90;;;0.60;;
47922;SDS011;33688;44.354;9.228;2023-12-14T07:51:03;0.95;;;0.68;;
47922;SDS011;33688;44.354;9.228;2023-12-14T07:53:31;1.08;;;0.82;;
47922;SDS011;33688;44.354;9.228;2023-12-14T07:55:56;0.93;;;0.60;;
47922;SDS011;33688;44.354;9.228;2023-12-14T07:58:23;1.60;;;0.93;;
47922;SDS011;33688;44.354;9.228;2023-12-14T08:00:51;1.45;;;0.82;;
47922;SDS011;33688;44.354;9.228;2023-12-14T08:03:18;0.70;;;0.63;;
47922;SDS011;33688;44.354;9.228;2023-12-14T08:05:43;4.00;;;1.10;;
47922;SDS011;33688;44.354;9.228;2023-12-14T08:08:09;2.35;;;0.93;;
47922;SDS011;33688;44.354;9.228;2023-12-14T08:10:35;1.75;;;0.98;;
47922;SDS011;33688;44.354;9.228;2023-12-14T08:13:01;1.35;;;0.98;;
47922;SDS011;33688;44.354;9.228;2023-12-14T08:15:26;4.05;;;1.00;;
47922;SDS011;33688;44.354;9.228;2023-12-14T08:17:53;3.10;;;1.42;;
47922;SDS011;33688;44.354;9.228;2023-12-14T08:20:19;1.60;;;1.30;;
47922;SDS011;33688;44.354;9.228;2023-12-14T08:22:46;4.40;;;1.40;;
47922;SDS011;33688;44.354;9.228;2023-12-14T08:25:14;1.40;;;1.20;;
47922;SDS011;33688;44.354;9.228;2023-12-14T08:27:41;3.17;;;1.20;;
47922;SDS011;33688;44.354;9.228;2023-12-14T08:30:08;1.73;;;1.10;;
47922;SDS011;33688;44.354;9.228;2023-12-14T08:32:37;1.30;;;1.15;;
47922;SDS011;33688;44.354;9.228;2023-12-14T08:35:03;2.45;;;1.50;;
47922;SDS011;33688;44.354;9.228;2023-12-14T08:37:29;1.70;;;1.10;;
47922;SDS011;33688;44.354;9.228;2023-12-14T08:39:55;3.85;;;1.63;;
47922;SDS011;33688;44.354;9.228;2023-12-14T08:42:22;2.67;;;1.25;;
47922;SDS011;33688;44.354;9.228;2023-12-14T08:44:48;3.22;;;1.30;;
47922;SDS011;33688;44.354;9.228;2023-12-14T08:47:14;2.42;;;1.27;;
47922;SDS011;33688;44.354;9.228;2023-12-14T08:49:40;4.13;;;1.23;;
47922;SDS011;33688;44.354;9.228;2023-12-14T08:52:06;1.50;;;0.90;;
47922;SDS011;33688;44.354;9.228;2023-12-14T08:54:32;3.10;;;1.17;;
47922;SDS011;33688;44.354;9.228;2023-12-14T08:56:57;1.95;;;1.25;;
47922;SDS011;33688;44.354;9.228;2023-12-14T08:59:23;2.00;;;1.17;;
47922;SDS011;33688;44.354;9.228;2023-12-14T09:01:49;2.53;;;1.02;;
47922;SDS011;33688;44.354;9.228;2023-12-14T09:04:15;4.68;;;1.52;;
47922;SDS011;33688;44.354;9.228;2023-12-14T09:06:40;1.83;;;1.20;;
47922;SDS011;33688;44.354;9.228;2023-12-14T09:09:10;3.72;;;1.00;;
47922;SDS011;33688;44.354;9.228;2023-12-14T09:11:36;3.25;;;1.52;;
47922;SDS011;33688;44.354;9.228;2023-12-14T09:14:02;2.63;;;1.30;;
47922;SDS011;33688;44.354;9.228;2023-12-14T09:16:28;1.10;;;1.00;;
47922;SDS011;33688;44.354;9.228;2023-12-14T09:18:54;1.55;;;0.95;;
47922;SDS011;33688;44.354;9.228;2023-12-14T09:21:20;2.25;;;1.23;;
47922;SDS011;33688;44.354;9.228;2023-12-14T09:23:46;2.42;;;1.23;;
47922;SDS011;33688;44.354;9.228;2023-12-14T09:26:14;1.52;;;0.98;;
47922;SDS011;33688;44.354;9.228;2023-12-14T09:28:40;2.15;;;1.33;;
47922;SDS011;33688;44.354;9.228;2023-12-14T09:31:06;1.52;;;1.20;;
47922;SDS011;33688;44.354;9.228;2023-12-14T09:33:32;2.85;;;1.48;;
47922;SDS011;33688;44.354;9.228;2023-12-14T09:35:58;2.20;;;1.55;;
47922;SDS011;33688;44.354;9.228;2023-12-14T09:38:25;1.73;;;1.15;;
47922;SDS011;33688;44.354;9.228;2023-12-14T09:40:51;2.88;;;1.45;;
47922;SDS011;33688;44.354;9.228;2023-12-14T09:43:17;4.15;;;1.58;;
47922;SDS011;33688;44.354;9.228;2023-12-14T09:45:42;2.92;;;1.20;;
47922;SDS011;33688;44.354;9.228;2023-12-14T09:48:10;6.28;;;1.88;;
47922;SDS011;33688;44.354;9.228;2023-12-14T09:50:39;2.08;;;1.48;;
47922;SDS011;33688;44.354;9.228;2023-12-14T09:53:06;2.03;;;1.40;;
47922;SDS011;33688;44.354;9.228;2023-12-14T09:55:32;2.58;;;1.10;;
47922;SDS011;33688;44.354;9.228;2023-12-14T09:57:58;2.55;;;1.83;;
47922;SDS011;33688;44.354;9.228;2023-12-14T10:00:35;1.35;;;1.10;;
47922;SDS011;33688;44.354;9.228;2023-12-14T10:03:20;2.17;;;1.48;;
47922;SDS011;33688;44.354;9.228;2023-12-14T10:05:53;3.47;;;1.10;;
47922;SDS011;33688;44.354;9.228;2023-12-14T10:08:20;1.92;;;1.27;;
47922;SDS011;33688;44.354;9.228;2023-12-14T10:10:48;3.42;;;1.60;;
47922;SDS011;33688;44.354;9.228;2023-12-14T10:13:19;3.88;;;1.60;;
47922;SDS011;33688;44.354;9.228;2023-12-14T10:15:48;2.30;;;1.35;;
47922;SDS011;33688;44.354;9.228;2023-12-14T10:18:24;3.75;;;1.73;;
47922;SDS011;33688;44.354;9.228;2023-12-14T10:20:51;3.95;;;1.08;;
47922;SDS011;33688;44.354;9.228;2023-12-14T10:23:17;2.05;;;1.20;;
47922;SDS011;33688;44.354;9.228;2023-12-14T10:25:43;2.75;;;1.20;;
47922;SDS011;33688;44.354;9.228;2023-12-14T10:28:13;2.72;;;1.33;;
47922;SDS011;33688;44.354;9.228;2023-12-14T10:30:40;1.80;;;1.35;;
47922;SDS011;33688;44.354;9.228;2023-12-14T10:33:06;2.25;;;1.25;;
47922;SDS011;33688;44.354;9.228;2023-12-14T10:35:32;2.83;;;1.45;;
47922;SDS011;33688;44.354;9.228;2023-12-14T10:37:58;1.77;;;1.00;;
47922;SDS011;33688;44.354;9.228;2023-12-14T10:40:29;3.08;;;1.20;;
47922;SDS011;33688;44.354;9.228;2023-12-14T10:43:00;4.10;;;1.63;;
47922;SDS011;33688;44.354;9.228;2023-12-14T10:45:30;1.85;;;1.23;;
47922;SDS011;33688;44.354;9.228;2023-12-14T10:47:59;3.17;;;1.35;;
47922;SDS011;33688;44.354;9.228;2023-12-14T10:50:28;1.27;;;1.10;;
47922;SDS011;33688;44.354;9.228;2023-12-14T10:52:56;2.42;;;1.17;;
47922;SDS011;33688;44.354;9.228;2023-12-14T10:55:42;1.38;;;1.20;;
47922;SDS011;33688;44.354;9.228;2023-12-14T10:58:11;5.60;;;1.48;;
47922;SDS011;33688;44.354;9.228;2023-12-14T11:00:38;2.85;;;1.55;;
47922;SDS011;33688;44.354;9.228;2023-12-14T11:03:04;2.15;;;1.38;;
47922;SDS011;33688;44.354;9.228;2023-12-14T11:05:34;2.75;;;1.25;;
47922;SDS011;33688;44.354;9.228;2023-12-14T11:08:03;3.22;;;1.10;;
47922;SDS011;33688;44.354;9.228;2023-12-14T11:10:52;1.90;;;1.25;;
47922;SDS011;33688;44.354;9.228;2023-12-14T11:13:22;1.33;;;1.10;;
47922;SDS011;33688;44.354;9.228;2023-12-14T11:15:50;2.42;;;1.73;;
47922;SDS011;33688;44.354;9.228;2023-12-14T11:23:26;2.60;;;1.35;;
47922;SDS011;33688;44.354;9.228;2023-12-14T11:26:03;2.72;;;1.50;;
47922;SDS011;33688;44.354;9.228;2023-12-14T11:28:35;2.30;;;1.20;;
47922;SDS011;33688;44.354;9.228;2023-12-14T11:31:09;3.00;;;1.35;;
47922;SDS011;33688;44.354;9.228;2023-12-14T11:33:36;1.70;;;1.08;;
47922;SDS011;33688;44.354;9.228;2023-12-14T11:36:02;5.20;;;1.25;;
47922;SDS011;33688;44.354;9.228;2023-12-14T11:38:29;2.55;;;1.23;;
47922;SDS011;33688;44.354;9.228;2023-12-14T11:40:55;2.05;;;1.20;;
47922;SDS011;33688;44.354;9.228;2023-12-14T11:43:21;3.17;;;1.17;;
47922;SDS011;33688;44.354;9.228;2023-12-14T11:45:49;2.67;;;1.10;;
47922;SDS011;33688;44.354;9.228;2023-12-14T11:48:14;2.65;;;1.30;;
47922;SDS011;33688;44.354;9.228;2023-12-14T11:50:41;2.40;;;1.25;;
47922;SDS011;33688;44.354;9.228;2023-12-14T11:53:08;4.03;;;1.67;;
47922;SDS011;33688;44.354;9.228;2023-12-14T11:55:36;1.77;;;1.10;;
47922;SDS011;33688;44.354;9.228;2023-12-14T11:58:04;2.38;;;1.35;;
47922;SDS011;33688;44.354;9.228;2023-12-14T12:00:30;3.42;;;1.40;;
47922;SDS011;33688;44.354;9.228;2023-12-14T12:03:10;1.98;;;1.10;;
47922;SDS011;33688;44.354;9.228;2023-12-14T12:05:44;3.13;;;1.30;;
47922;SDS011;33688;44.354;9.228;2023-12-14T12:08:15;4.03;;;1.98;;
47922;SDS011;33688;44.354;9.228;2023-12-14T12:10:44;3.88;;;1.08;;
47922;SDS011;33688;44.354;9.228;2023-12-14T12:13:16;2.92;;;1.48;;
47922;SDS011;33688;44.354;9.228;2023-12-14T12:15:43;1.40;;;1.00;;
47922;SDS011;33688;44.354;9.228;2023-12-14T12:18:10;2.33;;;1.30;;
47922;SDS011;33688;44.354;9.228;2023-12-14T12:20:41;2.45;;;1.33;;
47922;SDS011;33688;44.354;9.228;2023-12-14T12:23:08;2.83;;;1.10;;
47922;SDS011;33688;44.354;9.228;2023-12-14T12:25:34;2.85;;;1.30;;
47922;SDS011;33688;44.354;9.228;2023-12-14T12:28:01;5.10;;;2.15;;
47922;SDS011;33688;44.354;9.228;2023-12-14T12:30:31;2.83;;;1.10;;
47922;SDS011;33688;44.354;9.228;2023-12-14T12:32:58;2.05;;;1.05;;
47922;SDS011;33688;44.354;9.228;2023-12-14T12:35:23;1.98;;;1.38;;
47922;SDS011;33688;44.354;9.228;2023-12-14T12:37:50;2.78;;;0.98;;
47922;SDS011;33688;44.354;9.228;2023-12-14T12:40:23;3.15;;;1.35;;
47922;SDS011;33688;44.354;9.228;2023-12-14T12:42:55;1.80;;;1.20;;
47922;SDS011;33688;44.354;9.228;2023-12-14T12:45:22;2.80;;;1.60;;
47922;SDS011;33688;44.354;9.228;2023-12-14T12:47:50;2.40;;;1.45;;
47922;SDS011;33688;44.354;9.228;2023-12-14T12:50:16;3.08;;;1.10;;
47922;SDS011;33688;44.354;9.228;2023-12-14T12:52:42;3.50;;;1.08;;
47922;SDS011;33688;44.354;9.228;2023-12-14T12:55:11;2.15;;;1.00;;
47922;SDS011;33688;44.354;9.228;2023-12-14T12:57:36;1.48;;;1.13;;
47922;SDS011;33688;44.354;9.228;2023-12-14T13:00:03;2.83;;;1.10;;
47922;SDS011;33688;44.354;9.228;2023-12-14T13:02:32;2.70;;;1.45;;
47922;SDS011;33688;44.354;9.228;2023-12-14T13:04:59;1.38;;;0.98;;
47922;SDS011;33688;44.354;9.228;2023-12-14T13:07:25;2.47;;;1.13;;
47922;SDS011;33688;44.354;9.228;2023-12-14T13:09:51;2.92;;;1.25;;
47922;SDS011;33688;44.354;9.228;2023-12-14T13:12:16;2.85;;;1.33;;
47922;SDS011;33688;44.354;9.228;2023-12-14T13:14:42;2.53;;;1.10;;
47922;SDS011;33688;44.354;9.228;2023-12-14T13:17:08;1.52;;;0.93;;
47922;SDS011;33688;44.354;9.228;2023-12-14T13:19:35;4.35;;;1.20;;
47922;SDS011;33688;44.354;9.228;2023-12-14T13:22:00;2.05;;;0.93;;
47922;SDS011;33688;44.354;9.228;2023-12-14T13:24:27;2.17;;;1.15;;
47922;SDS011;33688;44.354;9.228;2023-12-14T13:26:53;2.25;;;1.30;;
47922;SDS011;33688;44.354;9.228;2023-12-14T13:29:19;2.25;;;1.30;;
47922;SDS011;33688;44.354;9.228;2023-12-14T13:31:46;2.08;;;1.13;;
47922;SDS011;33688;44.354;9.228;2023-12-14T13:34:13;1.88;;;0.98;;
47922;SDS011;33688;44.354;9.228;2023-12-14T13:36:38;1.58;;;1.00;;
47922;SDS011;33688;44.354;9.228;2023-12-14T13:39:04;2.15;;;1.20;;
47922;SDS011;33688;44.354;9.228;2023-12-14T13:41:31;3.08;;;1.20;;
47922;SDS011;33688;44.354;9.228;2023-12-14T13:43:59;1.83;;;1.13;;
47922;SDS011;33688;44.354;9.228;2023-12-14T13:46:26;2.38;;;1.08;;
47922;SDS011;33688;44.354;9.228;2023-12-14T13:48:51;1.60;;;1.20;;
47922;SDS011;33688;44.354;9.228;2023-12-14T13:51:18;1.15;;;1.00;;
47922;SDS011;33688;44.354;9.228;2023-12-14T13:53:45;3.50;;;1.00;;
47922;SDS011;33688;44.354;9.228;2023-12-14T13:56:11;3.45;;;1.83;;
47922;SDS011;33688;44.354;9.228;2023-12-14T13:58:38;2.15;;;1.08;;
47922;SDS011;33688;44.354;9.228;2023-12-14T14:01:04;1.40;;;0.90;;
47922;SDS011;33688;44.354;9.228;2023-12-14T14:03:34;3.97;;;1.02;;
47922;SDS011;33688;44.354;9.228;2023-12-14T14:06:02;2.13;;;1.15;;
47922;SDS011;33688;44.354;9.228;2023-12-14T14:08:28;3.42;;;0.90;;
47922;SDS011;33688;44.354;9.228;2023-12-14T14:10:55;2.75;;;1.40;;
47922;SDS011;33688;44.354;9.228;2023-12-14T14:13:21;3.78;;;1.30;;
47922;SDS011;33688;44.354;9.228;2023-12-14T14:15:48;1.38;;;1.00;;
47922;SDS011;33688;44.354;9.228;2023-12-14T14:18:13;1.92;;;0.95;;
47922;SDS011;33688;44.354;9.228;2023-12-14T14:20:39;2.22;;;1.05;;
47922;SDS011;33688;44.354;9.228;2023-12-14T14:23:06;1.88;;;1.00;;
47922;SDS011;33688;44.354;9.228;2023-12-14T14:25:32;2.38;;;1.50;;
47922;SDS011;33688;44.354;9.228;2023-12-14T14:27:59;2.42;;;1.20;;
47922;SDS011;33688;44.354;9.228;2023-12-14T14:30:25;2.17;;;1.25;;
47922;SDS011;33688;44.354;9.228;2023-12-14T14:32:51;2.47;;;0.80;;
47922;SDS011;33688;44.354;9.228;2023-12-14T14:35:19;1.88;;;1.15;;
47922;SDS011;33688;44.354;9.228;2023-12-14T14:37:44;1.42;;;1.02;;
47922;SDS011;33688;44.354;9.228;2023-12-14T14:40:12;1.33;;;1.00;;
47922;SDS011;33688;44.354;9.228;2023-12-14T14:42:43;1.40;;;1.10;;
47922;SDS011;33688;44.354;9.228;2023-12-14T14:45:11;3.08;;;1.42;;
47922;SDS011;33688;44.354;9.228;2023-12-14T14:47:37;3.90;;;1.10;;
47922;SDS011;33688;44.354;9.228;2023-12-14T14:50:07;0.85;;;0.80;;
47922;SDS011;33688;44.354;9.228;2023-12-14T14:52:33;1.60;;;0.82;;
47922;SDS011;33688;44.354;9.228;2023-12-14T14:55:00;1.83;;;1.10;;
47922;SDS011;33688;44.354;9.228;2023-12-14T14:57:26;5.03;;;1.20;;
47922;SDS011;33688;44.354;9.228;2023-12-14T14:59:53;1.70;;;1.10;;
47922;SDS011;33688;44.354;9.228;2023-12-14T15:02:20;1.75;;;1.30;;
47922;SDS011;33688;44.354;9.228;2023-12-14T15:04:46;3.33;;;1.20;;
47922;SDS011;33688;44.354;9.228;2023-12-14T15:07:13;1.58;;;1.00;;
47922;SDS011;33688;44.354;9.228;2023-12-14T15:09:39;1.73;;;1.00;;
47922;SDS011;33688;44.354;9.228;2023-12-14T15:12:06;1.45;;;0.80;;
47922;SDS011;33688;44.354;9.228;2023-12-14T15:14:31;1.45;;;0.82;;
47922;SDS011;33688;44.354;9.228;2023-12-14T15:16:57;2.50;;;0.90;;
47922;SDS011;33688;44.354;9.228;2023-12-14T15:19:24;1.65;;;0.88;;
47922;SDS011;33688;44.354;9.228;2023-12-14T15:21:52;1.60;;;1.02;;
47922;SDS011;33688;44.354;9.228;2023-12-14T15:24:17;1.65;;;1.15;;
47922;SDS011;33688;44.354;9.228;2023-12-14T15:26:45;2.42;;;1.25;;
47922;SDS011;33688;44.354;9.228;2023-12-14T15:29:11;4.30;;;1.00;;
47922;SDS011;33688;44.354;9.228;2023-12-14T15:31:37;2.90;;;1.23;;
47922;SDS011;33688;44.354;9.228;2023-12-14T15:34:03;2.03;;;1.00;;
47922;SDS011;33688;44.354;9.228;2023-12-14T15:36:32;3.58;;;1.30;;
47922;SDS011;33688;44.354;9.228;2023-12-14T15:39:00;1.90;;;1.10;;
47922;SDS011;33688;44.354;9.228;2023-12-14T15:41:27;1.95;;;1.45;;
47922;SDS011;33688;44.354;9.228;2023-12-14T15:43:54;3.08;;;1.08;;
47922;SDS011;33688;44.354;9.228;2023-12-14T15:46:21;8.57;;;1.02;;
47922;SDS011;33688;44.354;9.228;2023-12-14T15:48:47;7.90;;;1.38;;
47922;SDS011;33688;44.354;9.228;2023-12-14T15:51:13;8.23;;;1.10;;
47922;SDS011;33688;44.354;9.228;2023-12-14T15:53:39;4.43;;;1.42;;
47922;SDS011;33688;44.354;9.228;2023-12-14T15:56:05;1.98;;;1.08;;
47922;SDS011;33688;44.354;9.228;2023-12-14T15:58:32;1.85;;;1.30;;
47922;SDS011;33688;44.354;9.228;2023-12-14T16:00:57;2.25;;;1.10;;
47922;SDS011;33688;44.354;9.228;2023-12-14T16:03:23;5.45;;;1.15;;
47922;SDS011;33688;44.354;9.228;2023-12-14T16:05:51;3.20;;;1.13;;
47922;SDS011;33688;44.354;9.228;2023-12-14T16:08:17;8.40;;;1.45;;
47922;SDS011;33688;44.354;9.228;2023-12-14T16:10:43;4.10;;;1.08;;
47922;SDS011;33688;44.354;9.228;2023-12-14T16:13:12;2.65;;;1.05;;
47922;SDS011;33688;44.354;9.228;2023-12-14T16:15:39;1.70;;;1.40;;
47922;SDS011;33688;44.354;9.228;2023-12-14T16:18:05;2.63;;;1.45;;
47922;SDS011;33688;44.354;9.228;2023-12-14T16:20:30;6.95;;;2.20;;
47922;SDS011;33688;44.354;9.228;2023-12-14T16:22:56;2.70;;;1.65;;
47922;SDS011;33688;44.354;9.228;2023-12-14T16:25:24;27.63;;;2.85;;
47922;SDS011;33688;44.354;9.228;2023-12-14T16:27:51;44.25;;;4.72;;
47922;SDS011;33688;44.354;9.228;2023-12-14T16:30:18;38.63;;;4.88;;
47922;SDS011;33688;44.354;9.228;2023-12-14T16:32:44;49.10;;;4.90;;
47922;SDS011;33688;44.354;9.228;2023-12-14T16:35:10;34.80;;;4.18;;
47922;SDS011;33688;44.354;9.228;2023-12-14T16:37:38;23.98;;;4.78;;
47922;SDS011;33688;44.354;9.228;2023-12-14T16:40:04;34.70;;;5.75;;
47922;SDS011;33688;44.354;9.228;2023-12-14T16:42:31;22.48;;;4.28;;
47922;SDS011;33688;44.354;9.228;2023-12-14T16:44:57;34.08;;;3.85;;
47922;SDS011;33688;44.354;9.228;2023-12-14T16:47:23;13.98;;;3.28;;
47922;SDS011;33688;44.354;9.228;2023-12-14T16:49:49;13.18;;;2.90;;
47922;SDS011;33688;44.354;9.228;2023-12-14T16:52:15;23.10;;;5.00;;
47922;SDS011;33688;44.354;9.228;2023-12-14T16:54:45;7.88;;;2.70;;
47922;SDS011;33688;44.354;9.228;2023-12-14T16:57:12;19.90;;;3.58;;
47922;SDS011;33688;44.354;9.228;2023-12-14T16:59:39;13.57;;;3.00;;
47922;SDS011;33688;44.354;9.228;2023-12-14T17:02:07;11.68;;;3.10;;
47922;SDS011;33688;44.354;9.228;2023-12-14T17:04:34;23.33;;;2.85;;
47922;SDS011;33688;44.354;9.228;2023-12-14T17:06:59;9.95;;;2.83;;
47922;SDS011;33688;44.354;9.228;2023-12-14T17:09:25;8.32;;;2.63;;
47922;SDS011;33688;44.354;9.228;2023-12-14T17:11:54;14.50;;;3.00;;
47922;SDS011;33688;44.354;9.228;2023-12-14T17:14:20;10.18;;;2.83;;
47922;SDS011;33688;44.354;9.228;2023-12-14T17:16:48;7.35;;;2.25;;
47922;SDS011;33688;44.354;9.228;2023-12-14T17:19:15;12.45;;;2.72;;
47922;SDS011;33688;44.354;9.228;2023-12-14T17:21:41;15.55;;;2.88;;
47922;SDS011;33688;44.354;9.228;2023-12-14T17:24:08;8.95;;;3.03;;
47922;SDS011;33688;44.354;9.228;2023-12-14T17:26:34;11.80;;;2.50;;
47922;SDS011;33688;44.354;9.228;2023-12-14T17:29:01;11.35;;;2.40;;
47922;SDS011;33688;44.354;9.228;2023-12-14T17:31:31;9.25;;;2.85;;
47922;SDS011;33688;44.354;9.228;2023-12-14T17:33:58;8.00;;;2.58;;
47922;SDS011;33688;44.354;9.228;2023-12-14T17:36:24;7.43;;;2.40;;
47922;SDS011;33688;44.354;9.228;2023-12-14T17:38:50;9.13;;;2.47;;
47922;SDS011;33688;44.354;9.228;2023-12-14T17:41:17;18.13;;;2.90;;
47922;SDS011;33688;44.354;9.228;2023-12-14T17:43:43;8.35;;;2.25;;
47922;SDS011;33688;44.354;9.228;2023-12-14T17:46:13;11.07;;;3.15;;
47922;SDS011;33688;44.354;9.228;2023-12-14T17:48:40;4.60;;;1.98;;
47922;SDS011;33688;44.354;9.228;2023-12-14T17:51:07;8.38;;;1.80;;
47922;SDS011;33688;44.354;9.228;2023-12-14T17:53:33;56.47;;;3.97;;
47922;SDS011;33688;44.354;9.228;2023-12-14T17:56:04;10.15;;;3.05;;
47922;SDS011;33688;44.354;9.228;2023-12-14T17:58:31;5.80;;;2.20;;
47922;SDS011;33688;44.354;9.228;2023-12-14T18:00:56;4.35;;;1.90;;
47922;SDS011;33688;44.354;9.228;2023-12-14T18:03:25;3.72;;;2.38;;
47922;SDS011;33688;44.354;9.228;2023-12-14T18:05:55;2.83;;;1.95;;
47922;SDS011;33688;44.354;9.228;2023-12-14T18:08:21;6.25;;;2.45;;
47922;SDS011;33688;44.354;9.228;2023-12-14T18:10:47;3.40;;;2.25;;
47922;SDS011;33688;44.354;9.228;2023-12-14T18:13:13;4.10;;;2.30;;
47922;SDS011;33688;44.354;9.228;2023-12-14T18:15:42;5.05;;;2.38;;
47922;SDS011;33688;44.354;9.228;2023-12-14T18:18:09;5.70;;;2.17;;
47922;SDS011;33688;44.354;9.228;2023-12-14T18:20:35;7.25;;;2.17;;
47922;SDS011;33688;44.354;9.228;2023-12-14T18:23:02;9.40;;;2.10;;
47922;SDS011;33688;44.354;9.228;2023-12-14T18:25:28;3.97;;;2.20;;
47922;SDS011;33688;44.354;9.228;2023-12-14T18:27:54;4.07;;;2.00;;
47922;SDS011;33688;44.354;9.228;2023-12-14T18:30:24;5.55;;;2.72;;
47922;SDS011;33688;44.354;9.228;2023-12-14T18:32:51;3.85;;;2.25;;
47922;SDS011;33688;44.354;9.228;2023-12-14T18:35:17;6.00;;;3.25;;
47922;SDS011;33688;44.354;9.228;2023-12-14T18:37:43;2.78;;;1.75;;
47922;SDS011;33688;44.354;9.228;2023-12-14T18:40:10;3.38;;;1.95;;
47922;SDS011;33688;44.354;9.228;2023-12-14T18:42:36;4.90;;;2.17;;
47922;SDS011;33688;44.354;9.228;2023-12-14T18:45:02;4.85;;;1.90;;
47922;SDS011;33688;44.354;9.228;2023-12-14T18:47:28;4.40;;;2.42;;
47922;SDS011;33688;44.354;9.228;2023-12-14T18:49:55;2.83;;;1.60;;
47922;SDS011;33688;44.354;9.228;2023-12-14T18:52:21;3.47;;;2.13;;
47922;SDS011;33688;44.354;9.228;2023-12-14T18:54:47;4.20;;;1.90;;
47922;SDS011;33688;44.354;9.228;2023-12-14T18:57:12;5.85;;;2.67;;
47922;SDS011;33688;44.354;9.228;2023-12-14T18:59:40;3.03;;;1.85;;
47922;SDS011;33688;44.354;9.228;2023-12-14T19:02:06;4.57;;;2.67;;
47922;SDS011;33688;44.354;9.228;2023-12-14T19:04:32;5.15;;;2.38;;
47922;SDS011;33688;44.354;9.228;2023-12-14T19:06:58;3.88;;;1.90;;
47922;SDS011;33688;44.354;9.228;2023-12-14T19:09:24;1.85;;;1.50;;
47922;SDS011;33688;44.354;9.228;2023-12-14T19:11:50;3.35;;;1.80;;
47922;SDS011;33688;44.354;9.228;2023-12-14T19:14:16;2.88;;;1.65;;
47922;SDS011;33688;44.354;9.228;2023-12-14T19:16:42;4.07;;;1.90;;
47922;SDS011;33688;44.354;9.228;2023-12-14T19:19:07;3.50;;;2.13;;
47922;SDS011;33688;44.354;9.228;2023-12-14T19:24:02;3.05;;;1.80;;
47922;SDS011;33688;44.354;9.228;2023-12-14T19:26:29;3.83;;;1.80;;
47922;SDS011;33688;44.354;9.228;2023-12-14T19:28:55;2.22;;;1.60;;
47922;SDS011;33688;44.354;9.228;2023-12-14T19:31:24;2.00;;;1.80;;